sensor_id;sensor_type;location;lat;lon;timestamp;temperature;humidity
15407;DHT22;7802;51.568;6.364;2022-07-09T00:00:39;16.20;99.90
15407;DHT22;7802;51.568;6.364;2022-07-09T00:03:08;16.20;99.90
15407;DHT22;7802;51.568;6.364;2022-07-09T00:05:36;16.20;99.90
15407;DHT22;7802;51.568;6.364;2022-07-09T00:08:05;15.40;99.90
15407;DHT22;7802;51.568;6.364;2022-07-09T00:10:33;16.20;99.90
15407;DHT22;7802;51.568;6.364;2022-07-09T00:13:01;16.20;99.90
15407;DHT22;7802;51.568;6.364;2022-07-09T00:15:29;16.10;99.90
15407;DHT22;7802;51.568;6.364;2022-07-09T00:17:57;16.10;99.90
15407;DHT22;7802;51.568;6.364;2022-07-09T00:20:26;16.10;99.90
15407;DHT22;7802;51.568;6.364;2022-07-09T00:22:54;16.10;99.90
15407;DHT22;7802;51.568;6.364;2022-07-09T00:25:22;16.10;99.90
15407;DHT22;7802;51.568;6.364;2022-07-09T00:27:50;16.10;99.90
15407;DHT22;7802;51.568;6.364;2022-07-09T00:30:18;16.10;99.90
15407;DHT22;7802;51.568;6.364;2022-07-09T00:32:46;16.10;99.90
15407;DHT22;7802;51.568;6.364;2022-07-09T00:35:15;16.10;99.90
15407;DHT22;7802;51.568;6.364;2022-07-09T00:37:44;16.10;99.90
15407;DHT22;7802;51.568;6.364;2022-07-09T00:40:12;16.10;99.90
15407;DHT22;7802;51.568;6.364;2022-07-09T00:42:40;16.20;99.90
15407;DHT22;7802;51.568;6.364;2022-07-09T00:45:08;16.10;99.90
15407;DHT22;7802;51.568;6.364;2022-07-09T00:47:36;16.10;99.90
15407;DHT22;7802;51.568;6.364;2022-07-09T00:50:05;16.10;99.90
15407;DHT22;7802;51.568;6.364;2022-07-09T00:52:35;16.00;99.90
15407;DHT22;7802;51.568;6.364;2022-07-09T00:55:06;15.90;99.90
15407;DHT22;7802;51.568;6.364;2022-07-09T00:57:34;15.90;99.90
15407;DHT22;7802;51.568;6.364;2022-07-09T01:00:03;15.80;99.90
15407;DHT22;7802;51.568;6.364;2022-07-09T01:02:31;15.80;99.90
15407;DHT22;7802;51.568;6.364;2022-07-09T01:05:00;15.70;99.90
15407;DHT22;7802;51.568;6.364;2022-07-09T01:07:28;15.70;99.90
15407;DHT22;7802;51.568;6.364;2022-07-09T01:09:56;15.60;99.90
15407;DHT22;7802;51.568;6.364;2022-07-09T01:12:25;15.60;99.90
15407;DHT22;7802;51.568;6.364;2022-07-09T01:14:53;15.60;99.90
15407;DHT22;7802;51.568;6.364;2022-07-09T01:17:21;15.60;99.90
15407;DHT22;7802;51.568;6.364;2022-07-09T01:19:49;15.60;99.90
15407;DHT22;7802;51.568;6.364;2022-07-09T01:22:18;15.60;99.90
15407;DHT22;7802;51.568;6.364;2022-07-09T01:24:47;15.50;99.90
15407;DHT22;7802;51.568;6.364;2022-07-09T01:27:16;15.50;99.90
15407;DHT22;7802;51.568;6.364;2022-07-09T01:29:44;15.60;99.90
15407;DHT22;7802;51.568;6.364;2022-07-09T01:32:16;15.50;99.90
15407;DHT22;7802;51.568;6.364;2022-07-09T01:34:44;15.30;99.90
15407;DHT22;7802;51.568;6.364;2022-07-09T01:37:12;15.30;99.90
15407;DHT22;7802;51.568;6.364;2022-07-09T01:39:42;15.20;99.90
15407;DHT22;7802;51.568;6.364;2022-07-09T01:42:18;15.20;99.90
15407;DHT22;7802;51.568;6.364;2022-07-09T01:44:47;15.20;99.90
15407;DHT22;7802;51.568;6.364;2022-07-09T01:47:15;15.20;99.90
15407;DHT22;7802;51.568;6.364;2022-07-09T01:49:44;15.10;99.90
15407;DHT22;7802;51.568;6.364;2022-07-09T01:52:12;15.10;99.90
15407;DHT22;7802;51.568;6.364;2022-07-09T01:54:41;15.10;99.90
15407;DHT22;7802;51.568;6.364;2022-07-09T01:57:09;15.20;99.90
15407;DHT22;7802;51.568;6.364;2022-07-09T01:59:37;15.10;99.90
15407;DHT22;7802;51.568;6.364;2022-07-09T02:02:05;15.10;99.90
15407;DHT22;7802;51.568;6.364;2022-07-09T02:04:33;15.10;99.90
15407;DHT22;7802;51.568;6.364;2022-07-09T02:07:01;15.00;99.90
15407;DHT22;7802;51.568;6.364;2022-07-09T02:09:30;15.00;99.90
15407;DHT22;7802;51.568;6.364;2022-07-09T02:11:59;15.00;99.90
15407;DHT22;7802;51.568;6.364;2022-07-09T02:14:27;15.00;99.90
15407;DHT22;7802;51.568;6.364;2022-07-09T02:16:55;14.90;99.90
15407;DHT22;7802;51.568;6.364;2022-07-09T02:19:23;15.00;99.90
15407;DHT22;7802;51.568;6.364;2022-07-09T02:21:51;14.90;99.90
15407;DHT22;7802;51.568;6.364;2022-07-09T02:24:19;14.90;99.90
15407;DHT22;7802;51.568;6.364;2022-07-09T02:26:47;14.90;99.90
15407;DHT22;7802;51.568;6.364;2022-07-09T02:29:17;14.80;99.90
15407;DHT22;7802;51.568;6.364;2022-07-09T02:31:45;14.80;99.90
15407;DHT22;7802;51.568;6.364;2022-07-09T02:34:13;14.70;99.90
15407;DHT22;7802;51.568;6.364;2022-07-09T02:36:41;14.70;99.90
15407;DHT22;7802;51.568;6.364;2022-07-09T02:39:09;14.70;99.90
15407;DHT22;7802;51.568;6.364;2022-07-09T02:41:37;14.70;99.90
15407;DHT22;7802;51.568;6.364;2022-07-09T02:44:05;14.70;99.90
15407;DHT22;7802;51.568;6.364;2022-07-09T02:46:34;14.60;99.90
15407;DHT22;7802;51.568;6.364;2022-07-09T02:49:03;14.60;99.90
15407;DHT22;7802;51.568;6.364;2022-07-09T02:51:31;14.60;99.90
15407;DHT22;7802;51.568;6.364;2022-07-09T02:53:59;14.60;99.90
15407;DHT22;7802;51.568;6.364;2022-07-09T02:56:27;14.60;99.90
15407;DHT22;7802;51.568;6.364;2022-07-09T02:58:55;14.50;99.90
15407;DHT22;7802;51.568;6.364;2022-07-09T03:01:23;14.60;99.90
15407;DHT22;7802;51.568;6.364;2022-07-09T03:03:53;14.70;99.90
15407;DHT22;7802;51.568;6.364;2022-07-09T03:06:21;14.50;99.90
15407;DHT22;7802;51.568;6.364;2022-07-09T03:08:49;14.50;99.90
15407;DHT22;7802;51.568;6.364;2022-07-09T03:11:18;14.60;99.90
15407;DHT22;7802;51.568;6.364;2022-07-09T03:13:46;14.50;99.90
15407;DHT22;7802;51.568;6.364;2022-07-09T03:16:14;14.60;99.90
15407;DHT22;7802;51.568;6.364;2022-07-09T03:18:42;14.50;99.90
15407;DHT22;7802;51.568;6.364;2022-07-09T03:21:11;14.40;99.90
15407;DHT22;7802;51.568;6.364;2022-07-09T03:23:39;14.40;99.90
15407;DHT22;7802;51.568;6.364;2022-07-09T03:26:07;14.40;99.90
15407;DHT22;7802;51.568;6.364;2022-07-09T03:28:36;14.40;99.90
15407;DHT22;7802;51.568;6.364;2022-07-09T03:31:05;14.40;99.90
15407;DHT22;7802;51.568;6.364;2022-07-09T03:33:33;14.40;99.90
15407;DHT22;7802;51.568;6.364;2022-07-09T03:36:01;14.40;99.90
15407;DHT22;7802;51.568;6.364;2022-07-09T03:38:31;14.40;99.90
15407;DHT22;7802;51.568;6.364;2022-07-09T03:40:59;14.40;99.90
15407;DHT22;7802;51.568;6.364;2022-07-09T03:43:27;14.50;99.90
15407;DHT22;7802;51.568;6.364;2022-07-09T03:45:55;14.50;99.90
15407;DHT22;7802;51.568;6.364;2022-07-09T03:48:23;14.50;99.90
15407;DHT22;7802;51.568;6.364;2022-07-09T03:50:51;14.50;99.90
15407;DHT22;7802;51.568;6.364;2022-07-09T03:53:19;14.40;99.90
15407;DHT22;7802;51.568;6.364;2022-07-09T03:55:48;14.40;99.90
15407;DHT22;7802;51.568;6.364;2022-07-09T03:58:17;14.40;99.90
15407;DHT22;7802;51.568;6.364;2022-07-09T04:00:45;14.40;99.90
15407;DHT22;7802;51.568;6.364;2022-07-09T04:03:13;14.50;99.90
15407;DHT22;7802;51.568;6.364;2022-07-09T04:05:41;14.60;99.90
15407;DHT22;7802;51.568;6.364;2022-07-09T04:08:11;14.60;99.90
15407;DHT22;7802;51.568;6.364;2022-07-09T04:10:39;14.70;99.90
15407;DHT22;7802;51.568;6.364;2022-07-09T04:13:08;14.60;99.90
15407;DHT22;7802;51.568;6.364;2022-07-09T04:15:40;14.60;99.90
15407;DHT22;7802;51.568;6.364;2022-07-09T04:18:08;14.70;99.90
15407;DHT22;7802;51.568;6.364;2022-07-09T04:20:36;14.70;99.90
15407;DHT22;7802;51.568;6.364;2022-07-09T04:23:04;14.70;99.90
15407;DHT22;7802;51.568;6.364;2022-07-09T04:25:32;14.90;99.90
15407;DHT22;7802;51.568;6.364;2022-07-09T04:28:00;14.80;99.90
15407;DHT22;7802;51.568;6.364;2022-07-09T04:30:30;14.90;99.90
15407;DHT22;7802;51.568;6.364;2022-07-09T04:32:58;15.00;99.90
15407;DHT22;7802;51.568;6.364;2022-07-09T04:35:27;15.00;99.90
15407;DHT22;7802;51.568;6.364;2022-07-09T04:37:55;15.10;99.90
15407;DHT22;7802;51.568;6.364;2022-07-09T04:40:24;15.10;99.90
15407;DHT22;7802;51.568;6.364;2022-07-09T04:42:52;15.20;99.90
15407;DHT22;7802;51.568;6.364;2022-07-09T04:45:20;15.20;99.90
15407;DHT22;7802;51.568;6.364;2022-07-09T04:47:49;15.30;99.90
15407;DHT22;7802;51.568;6.364;2022-07-09T04:50:17;15.40;99.90
15407;DHT22;7802;51.568;6.364;2022-07-09T04:52:45;15.60;99.90
15407;DHT22;7802;51.568;6.364;2022-07-09T04:55:13;15.80;99.90
15407;DHT22;7802;51.568;6.364;2022-07-09T04:57:42;15.90;99.90
15407;DHT22;7802;51.568;6.364;2022-07-09T05:00:11;16.10;99.90
15407;DHT22;7802;51.568;6.364;2022-07-09T05:02:39;16.20;99.90
15407;DHT22;7802;51.568;6.364;2022-07-09T05:05:09;16.30;99.90
15407;DHT22;7802;51.568;6.364;2022-07-09T05:07:38;16.40;99.90
15407;DHT22;7802;51.568;6.364;2022-07-09T05:10:07;16.60;99.90
15407;DHT22;7802;51.568;6.364;2022-07-09T05:12:35;16.60;99.90
15407;DHT22;7802;51.568;6.364;2022-07-09T05:15:04;16.70;99.90
15407;DHT22;7802;51.568;6.364;2022-07-09T05:17:34;16.70;99.90
15407;DHT22;7802;51.568;6.364;2022-07-09T05:20:02;16.80;99.90
15407;DHT22;7802;51.568;6.364;2022-07-09T05:22:34;16.90;99.90
15407;DHT22;7802;51.568;6.364;2022-07-09T05:25:03;17.10;99.90
15407;DHT22;7802;51.568;6.364;2022-07-09T05:27:32;17.10;99.90
15407;DHT22;7802;51.568;6.364;2022-07-09T05:30:00;17.20;99.90
15407;DHT22;7802;51.568;6.364;2022-07-09T05:32:28;17.20;99.90
15407;DHT22;7802;51.568;6.364;2022-07-09T05:34:56;17.10;99.90
15407;DHT22;7802;51.568;6.364;2022-07-09T05:37:24;17.10;99.90
15407;DHT22;7802;51.568;6.364;2022-07-09T05:39:56;17.20;99.90
15407;DHT22;7802;51.568;6.364;2022-07-09T05:42:24;17.30;99.90
15407;DHT22;7802;51.568;6.364;2022-07-09T05:44:52;17.50;99.90
15407;DHT22;7802;51.568;6.364;2022-07-09T05:47:20;17.60;99.90
15407;DHT22;7802;51.568;6.364;2022-07-09T05:49:48;17.70;99.90
15407;DHT22;7802;51.568;6.364;2022-07-09T05:52:16;17.60;99.90
15407;DHT22;7802;51.568;6.364;2022-07-09T05:54:45;17.60;99.90
15407;DHT22;7802;51.568;6.364;2022-07-09T05:57:14;17.60;99.90
15407;DHT22;7802;51.568;6.364;2022-07-09T05:59:42;17.50;99.90
15407;DHT22;7802;51.568;6.364;2022-07-09T06:02:10;17.60;99.90
15407;DHT22;7802;51.568;6.364;2022-07-09T06:04:38;17.80;99.90
15407;DHT22;7802;51.568;6.364;2022-07-09T06:07:06;17.90;99.90
15407;DHT22;7802;51.568;6.364;2022-07-09T06:09:34;18.10;99.90
15407;DHT22;7802;51.568;6.364;2022-07-09T06:12:03;18.20;99.90
15407;DHT22;7802;51.568;6.364;2022-07-09T06:14:32;18.40;99.90
15407;DHT22;7802;51.568;6.364;2022-07-09T06:17:00;18.60;99.90
15407;DHT22;7802;51.568;6.364;2022-07-09T06:19:33;18.80;99.90
15407;DHT22;7802;51.568;6.364;2022-07-09T06:22:01;19.00;99.90
15407;DHT22;7802;51.568;6.364;2022-07-09T06:24:30;19.00;99.90
15407;DHT22;7802;51.568;6.364;2022-07-09T06:26:58;19.30;99.90
15407;DHT22;7802;51.568;6.364;2022-07-09T06:29:26;19.50;99.90
15407;DHT22;7802;51.568;6.364;2022-07-09T06:31:55;20.00;99.90
15407;DHT22;7802;51.568;6.364;2022-07-09T06:34:26;20.10;99.90
15407;DHT22;7802;51.568;6.364;2022-07-09T06:36:55;20.10;99.90
15407;DHT22;7802;51.568;6.364;2022-07-09T06:39:23;20.10;99.90
15407;DHT22;7802;51.568;6.364;2022-07-09T06:42:08;20.00;99.90
15407;DHT22;7802;51.568;6.364;2022-07-09T06:44:37;20.00;99.90
15407;DHT22;7802;51.568;6.364;2022-07-09T06:47:06;20.10;99.90
15407;DHT22;7802;51.568;6.364;2022-07-09T06:49:34;20.30;99.90
15407;DHT22;7802;51.568;6.364;2022-07-09T06:52:03;20.20;99.90
15407;DHT22;7802;51.568;6.364;2022-07-09T06:54:32;20.20;99.90
15407;DHT22;7802;51.568;6.364;2022-07-09T06:57:00;20.20;99.90
15407;DHT22;7802;51.568;6.364;2022-07-09T06:59:32;20.30;99.90
15407;DHT22;7802;51.568;6.364;2022-07-09T07:02:00;20.40;99.90
15407;DHT22;7802;51.568;6.364;2022-07-09T07:04:30;20.40;99.90
15407;DHT22;7802;51.568;6.364;2022-07-09T07:06:58;20.60;99.90
15407;DHT22;7802;51.568;6.364;2022-07-09T07:09:26;20.80;99.90
15407;DHT22;7802;51.568;6.364;2022-07-09T07:11:55;21.30;99.90
15407;DHT22;7802;51.568;6.364;2022-07-09T07:14:23;21.90;99.90
15407;DHT22;7802;51.568;6.364;2022-07-09T07:16:51;22.10;99.90
15407;DHT22;7802;51.568;6.364;2022-07-09T07:19:20;22.00;99.90
15407;DHT22;7802;51.568;6.364;2022-07-09T07:21:50;22.00;99.90
15407;DHT22;7802;51.568;6.364;2022-07-09T07:24:18;22.30;99.90
15407;DHT22;7802;51.568;6.364;2022-07-09T07:26:46;22.50;99.90
15407;DHT22;7802;51.568;6.364;2022-07-09T07:29:14;22.50;99.90
15407;DHT22;7802;51.568;6.364;2022-07-09T07:31:42;22.40;99.90
15407;DHT22;7802;51.568;6.364;2022-07-09T07:34:10;22.40;99.90
15407;DHT22;7802;51.568;6.364;2022-07-09T07:36:38;22.70;99.90
15407;DHT22;7802;51.568;6.364;2022-07-09T07:39:07;22.70;99.90
15407;DHT22;7802;51.568;6.364;2022-07-09T07:41:35;23.00;99.90
15407;DHT22;7802;51.568;6.364;2022-07-09T07:44:03;23.10;99.90
15407;DHT22;7802;51.568;6.364;2022-07-09T07:46:32;23.10;99.90
15407;DHT22;7802;51.568;6.364;2022-07-09T07:49:00;23.10;99.90
15407;DHT22;7802;51.568;6.364;2022-07-09T07:51:28;23.00;99.90
15407;DHT22;7802;51.568;6.364;2022-07-09T07:53:56;23.00;99.90
15407;DHT22;7802;51.568;6.364;2022-07-09T07:56:25;23.00;99.90
15407;DHT22;7802;51.568;6.364;2022-07-09T07:58:53;22.90;99.90
15407;DHT22;7802;51.568;6.364;2022-07-09T08:01:21;22.80;99.90
15407;DHT22;7802;51.568;6.364;2022-07-09T08:03:50;22.70;99.90
15407;DHT22;7802;51.568;6.364;2022-07-09T08:06:18;22.70;99.90
15407;DHT22;7802;51.568;6.364;2022-07-09T08:08:46;22.70;99.90
15407;DHT22;7802;51.568;6.364;2022-07-09T08:11:14;22.70;99.90
15407;DHT22;7802;51.568;6.364;2022-07-09T08:13:43;22.60;99.90
15407;DHT22;7802;51.568;6.364;2022-07-09T08:16:11;22.90;99.90
15407;DHT22;7802;51.568;6.364;2022-07-09T08:18:40;23.30;99.90
15407;DHT22;7802;51.568;6.364;2022-07-09T08:21:08;23.30;99.90
15407;DHT22;7802;51.568;6.364;2022-07-09T08:23:37;23.40;99.90
15407;DHT22;7802;51.568;6.364;2022-07-09T08:26:19;23.50;99.90
15407;DHT22;7802;51.568;6.364;2022-07-09T08:28:49;23.80;99.90
15407;DHT22;7802;51.568;6.364;2022-07-09T08:31:18;24.00;99.90
15407;DHT22;7802;51.568;6.364;2022-07-09T08:33:47;24.40;99.90
15407;DHT22;7802;51.568;6.364;2022-07-09T08:36:16;24.70;99.90
15407;DHT22;7802;51.568;6.364;2022-07-09T08:38:44;24.90;99.90
15407;DHT22;7802;51.568;6.364;2022-07-09T08:41:13;25.10;99.90
15407;DHT22;7802;51.568;6.364;2022-07-09T08:43:53;25.10;99.90
15407;DHT22;7802;51.568;6.364;2022-07-09T08:46:21;25.40;99.90
15407;DHT22;7802;51.568;6.364;2022-07-09T08:48:50;25.50;99.90
15407;DHT22;7802;51.568;6.364;2022-07-09T08:51:18;25.70;99.90
15407;DHT22;7802;51.568;6.364;2022-07-09T08:53:47;26.10;99.90
15407;DHT22;7802;51.568;6.364;2022-07-09T08:56:15;26.20;99.90
15407;DHT22;7802;51.568;6.364;2022-07-09T08:58:43;26.30;99.90
15407;DHT22;7802;51.568;6.364;2022-07-09T09:01:15;26.70;99.90
15407;DHT22;7802;51.568;6.364;2022-07-09T09:03:44;27.00;99.90
15407;DHT22;7802;51.568;6.364;2022-07-09T09:06:13;26.80;99.90
15407;DHT22;7802;51.568;6.364;2022-07-09T09:08:43;26.50;99.90
15407;DHT22;7802;51.568;6.364;2022-07-09T09:11:14;26.50;99.90
15407;DHT22;7802;51.568;6.364;2022-07-09T09:13:43;26.40;99.90
15407;DHT22;7802;51.568;6.364;2022-07-09T09:16:14;26.40;99.90
15407;DHT22;7802;51.568;6.364;2022-07-09T09:18:44;26.30;99.90
15407;DHT22;7802;51.568;6.364;2022-07-09T09:21:13;26.20;99.90
15407;DHT22;7802;51.568;6.364;2022-07-09T09:23:44;26.30;99.90
15407;DHT22;7802;51.568;6.364;2022-07-09T09:26:13;26.40;99.90
15407;DHT22;7802;51.568;6.364;2022-07-09T09:28:49;26.40;99.90
15407;DHT22;7802;51.568;6.364;2022-07-09T09:31:21;26.50;99.90
15407;DHT22;7802;51.568;6.364;2022-07-09T09:33:49;26.60;99.90
15407;DHT22;7802;51.568;6.364;2022-07-09T09:36:28;26.40;99.90
15407;DHT22;7802;51.568;6.364;2022-07-09T09:39:09;26.40;99.90
15407;DHT22;7802;51.568;6.364;2022-07-09T09:41:37;26.50;99.90
15407;DHT22;7802;51.568;6.364;2022-07-09T09:44:08;26.50;99.90
15407;DHT22;7802;51.568;6.364;2022-07-09T09:46:38;26.40;99.90
15407;DHT22;7802;51.568;6.364;2022-07-09T09:49:07;26.40;99.90
15407;DHT22;7802;51.568;6.364;2022-07-09T09:51:38;26.30;99.90
15407;DHT22;7802;51.568;6.364;2022-07-09T09:54:08;26.20;99.90
15407;DHT22;7802;51.568;6.364;2022-07-09T09:56:38;26.30;99.90
15407;DHT22;7802;51.568;6.364;2022-07-09T09:59:06;26.40;99.90
15407;DHT22;7802;51.568;6.364;2022-07-09T10:01:35;26.40;99.90
15407;DHT22;7802;51.568;6.364;2022-07-09T10:04:05;26.50;99.90
15407;DHT22;7802;51.568;6.364;2022-07-09T10:06:34;26.50;99.90
15407;DHT22;7802;51.568;6.364;2022-07-09T10:09:03;26.70;99.90
15407;DHT22;7802;51.568;6.364;2022-07-09T10:11:38;27.00;99.90
15407;DHT22;7802;51.568;6.364;2022-07-09T10:14:08;27.20;99.90
15407;DHT22;7802;51.568;6.364;2022-07-09T10:16:42;27.10;99.90
15407;DHT22;7802;51.568;6.364;2022-07-09T10:19:22;27.00;99.90
15407;DHT22;7802;51.568;6.364;2022-07-09T10:21:52;26.80;99.90
15407;DHT22;7802;51.568;6.364;2022-07-09T10:24:25;26.80;99.90
15407;DHT22;7802;51.568;6.364;2022-07-09T10:27:02;26.90;99.90
15407;DHT22;7802;51.568;6.364;2022-07-09T10:29:32;26.60;99.90
15407;DHT22;7802;51.568;6.364;2022-07-09T10:32:00;26.50;99.90
15407;DHT22;7802;51.568;6.364;2022-07-09T10:34:49;26.40;99.90
15407;DHT22;7802;51.568;6.364;2022-07-09T10:37:34;26.30;99.90
15407;DHT22;7802;51.568;6.364;2022-07-09T10:40:13;26.10;99.90
15407;DHT22;7802;51.568;6.364;2022-07-09T10:42:42;25.90;99.90
15407;DHT22;7802;51.568;6.364;2022-07-09T10:45:23;25.90;99.90
15407;DHT22;7802;51.568;6.364;2022-07-09T10:47:56;25.80;99.90
15407;DHT22;7802;51.568;6.364;2022-07-09T10:50:28;26.20;99.90
15407;DHT22;7802;51.568;6.364;2022-07-09T10:52:57;26.60;99.90
15407;DHT22;7802;51.568;6.364;2022-07-09T10:55:27;26.60;99.90
15407;DHT22;7802;51.568;6.364;2022-07-09T10:57:56;26.50;99.90
15407;DHT22;7802;51.568;6.364;2022-07-09T11:00:26;26.30;99.90
15407;DHT22;7802;51.568;6.364;2022-07-09T11:02:56;26.10;99.90
15407;DHT22;7802;51.568;6.364;2022-07-09T11:05:27;25.70;99.90
15407;DHT22;7802;51.568;6.364;2022-07-09T11:08:01;25.50;99.90
15407;DHT22;7802;51.568;6.364;2022-07-09T11:10:30;25.50;99.90
15407;DHT22;7802;51.568;6.364;2022-07-09T11:12:59;25.70;99.90
15407;DHT22;7802;51.568;6.364;2022-07-09T11:15:29;25.80;99.90
15407;DHT22;7802;51.568;6.364;2022-07-09T11:18:01;25.90;99.90
15407;DHT22;7802;51.568;6.364;2022-07-09T11:20:32;26.10;99.90
15407;DHT22;7802;51.568;6.364;2022-07-09T11:23:04;26.20;99.90
15407;DHT22;7802;51.568;6.364;2022-07-09T11:25:33;26.40;99.90
15407;DHT22;7802;51.568;6.364;2022-07-09T11:28:01;26.50;99.90
15407;DHT22;7802;51.568;6.364;2022-07-09T11:30:37;26.40;99.90
15407;DHT22;7802;51.568;6.364;2022-07-09T11:33:06;26.50;99.90
15407;DHT22;7802;51.568;6.364;2022-07-09T11:35:39;26.50;99.90
15407;DHT22;7802;51.568;6.364;2022-07-09T11:38:11;26.70;99.90
15407;DHT22;7802;51.568;6.364;2022-07-09T11:40:40;27.10;99.90
15407;DHT22;7802;51.568;6.364;2022-07-09T11:43:12;27.00;99.90
15407;DHT22;7802;51.568;6.364;2022-07-09T11:45:51;26.90;99.90
15407;DHT22;7802;51.568;6.364;2022-07-09T11:48:19;26.70;99.90
15407;DHT22;7802;51.568;6.364;2022-07-09T11:50:49;26.60;99.90
15407;DHT22;7802;51.568;6.364;2022-07-09T11:53:20;26.30;99.90
15407;DHT22;7802;51.568;6.364;2022-07-09T11:55:58;26.20;99.90
15407;DHT22;7802;51.568;6.364;2022-07-09T11:58:27;25.90;99.90
15407;DHT22;7802;51.568;6.364;2022-07-09T12:00:55;25.40;99.90
15407;DHT22;7802;51.568;6.364;2022-07-09T12:03:27;25.20;99.90
15407;DHT22;7802;51.568;6.364;2022-07-09T12:05:58;24.90;99.90
15407;DHT22;7802;51.568;6.364;2022-07-09T12:08:27;24.60;99.90
15407;DHT22;7802;51.568;6.364;2022-07-09T12:10:56;24.10;99.90
15407;DHT22;7802;51.568;6.364;2022-07-09T12:13:25;23.80;99.90
15407;DHT22;7802;51.568;6.364;2022-07-09T12:15:53;23.70;99.90
15407;DHT22;7802;51.568;6.364;2022-07-09T12:18:21;23.70;99.90
15407;DHT22;7802;51.568;6.364;2022-07-09T12:20:49;23.70;99.90
15407;DHT22;7802;51.568;6.364;2022-07-09T12:23:19;24.10;99.90
15407;DHT22;7802;51.568;6.364;2022-07-09T12:25:47;24.40;99.90
15407;DHT22;7802;51.568;6.364;2022-07-09T12:28:15;24.70;99.90
15407;DHT22;7802;51.568;6.364;2022-07-09T12:30:43;24.90;99.90
15407;DHT22;7802;51.568;6.364;2022-07-09T12:33:12;24.80;99.90
15407;DHT22;7802;51.568;6.364;2022-07-09T12:35:40;24.80;99.90
15407;DHT22;7802;51.568;6.364;2022-07-09T12:38:08;24.60;99.90
15407;DHT22;7802;51.568;6.364;2022-07-09T12:40:37;24.80;99.90
15407;DHT22;7802;51.568;6.364;2022-07-09T12:43:05;25.00;99.90
15407;DHT22;7802;51.568;6.364;2022-07-09T12:45:33;25.10;99.90
15407;DHT22;7802;51.568;6.364;2022-07-09T12:48:01;25.20;99.90
15407;DHT22;7802;51.568;6.364;2022-07-09T12:50:29;25.40;99.90
15407;DHT22;7802;51.568;6.364;2022-07-09T12:52:57;25.50;99.90
15407;DHT22;7802;51.568;6.364;2022-07-09T12:55:25;25.50;99.90
15407;DHT22;7802;51.568;6.364;2022-07-09T12:57:55;25.50;99.90
15407;DHT22;7802;51.568;6.364;2022-07-09T13:00:23;25.50;99.90
15407;DHT22;7802;51.568;6.364;2022-07-09T13:02:51;25.50;99.90
15407;DHT22;7802;51.568;6.364;2022-07-09T13:05:19;25.40;99.90
15407;DHT22;7802;51.568;6.364;2022-07-09T13:07:47;25.20;99.90
15407;DHT22;7802;51.568;6.364;2022-07-09T13:10:15;25.00;99.90
15407;DHT22;7802;51.568;6.364;2022-07-09T13:12:43;24.90;99.90
15407;DHT22;7802;51.568;6.364;2022-07-09T13:15:13;24.80;99.90
15407;DHT22;7802;51.568;6.364;2022-07-09T13:17:41;24.80;99.90
15407;DHT22;7802;51.568;6.364;2022-07-09T13:20:09;25.00;99.90
15407;DHT22;7802;51.568;6.364;2022-07-09T13:22:38;25.20;99.90
15407;DHT22;7802;51.568;6.364;2022-07-09T13:25:06;25.40;99.90
15407;DHT22;7802;51.568;6.364;2022-07-09T13:27:35;25.30;99.90
15407;DHT22;7802;51.568;6.364;2022-07-09T13:30:04;25.40;99.90
15407;DHT22;7802;51.568;6.364;2022-07-09T13:32:34;25.20;99.90
15407;DHT22;7802;51.568;6.364;2022-07-09T13:35:03;25.20;99.90
15407;DHT22;7802;51.568;6.364;2022-07-09T13:37:31;25.00;99.90
15407;DHT22;7802;51.568;6.364;2022-07-09T13:40:00;25.00;99.90
15407;DHT22;7802;51.568;6.364;2022-07-09T13:42:28;25.10;99.90
15407;DHT22;7802;51.568;6.364;2022-07-09T13:44:56;25.00;99.90
15407;DHT22;7802;51.568;6.364;2022-07-09T13:47:24;25.20;99.90
15407;DHT22;7802;51.568;6.364;2022-07-09T13:49:53;25.20;99.90
15407;DHT22;7802;51.568;6.364;2022-07-09T13:52:23;25.20;99.90
15407;DHT22;7802;51.568;6.364;2022-07-09T13:54:51;25.20;99.90
15407;DHT22;7802;51.568;6.364;2022-07-09T13:57:19;25.00;99.90
15407;DHT22;7802;51.568;6.364;2022-07-09T13:59:47;24.80;99.90
15407;DHT22;7802;51.568;6.364;2022-07-09T14:02:15;24.70;99.90
15407;DHT22;7802;51.568;6.364;2022-07-09T14:04:47;24.60;99.90
15407;DHT22;7802;51.568;6.364;2022-07-09T14:07:17;24.50;99.90
15407;DHT22;7802;51.568;6.364;2022-07-09T14:09:45;24.60;99.90
15407;DHT22;7802;51.568;6.364;2022-07-09T14:12:13;24.60;99.90
15407;DHT22;7802;51.568;6.364;2022-07-09T14:14:43;24.60;99.90
15407;DHT22;7802;51.568;6.364;2022-07-09T14:17:11;24.50;99.90
15407;DHT22;7802;51.568;6.364;2022-07-09T14:19:39;24.30;99.90
15407;DHT22;7802;51.568;6.364;2022-07-09T14:22:08;24.10;99.90
15407;DHT22;7802;51.568;6.364;2022-07-09T14:24:37;24.10;99.90
15407;DHT22;7802;51.568;6.364;2022-07-09T14:27:05;24.10;99.90
15407;DHT22;7802;51.568;6.364;2022-07-09T14:29:33;24.20;99.90
15407;DHT22;7802;51.568;6.364;2022-07-09T14:32:02;24.30;99.90
15407;DHT22;7802;51.568;6.364;2022-07-09T14:34:30;24.20;99.90
15407;DHT22;7802;51.568;6.364;2022-07-09T14:36:58;24.20;99.90
15407;DHT22;7802;51.568;6.364;2022-07-09T14:39:26;24.20;99.90
15407;DHT22;7802;51.568;6.364;2022-07-09T14:41:56;24.20;99.90
15407;DHT22;7802;51.568;6.364;2022-07-09T14:44:24;24.30;99.90
15407;DHT22;7802;51.568;6.364;2022-07-09T14:46:52;24.40;99.90
15407;DHT22;7802;51.568;6.364;2022-07-09T14:49:24;24.20;99.90
15407;DHT22;7802;51.568;6.364;2022-07-09T14:51:52;24.10;99.90
15407;DHT22;7802;51.568;6.364;2022-07-09T14:54:20;24.00;99.90
15407;DHT22;7802;51.568;6.364;2022-07-09T14:56:48;24.00;99.90
15407;DHT22;7802;51.568;6.364;2022-07-09T14:59:18;24.00;99.90
15407;DHT22;7802;51.568;6.364;2022-07-09T15:01:48;23.90;99.90
15407;DHT22;7802;51.568;6.364;2022-07-09T15:04:16;24.00;99.90
15407;DHT22;7802;51.568;6.364;2022-07-09T15:06:44;24.10;99.90
15407;DHT22;7802;51.568;6.364;2022-07-09T15:09:12;24.20;99.90
15407;DHT22;7802;51.568;6.364;2022-07-09T15:11:40;24.20;99.90
15407;DHT22;7802;51.568;6.364;2022-07-09T15:14:09;24.10;99.90
15407;DHT22;7802;51.568;6.364;2022-07-09T15:16:38;24.00;99.90
15407;DHT22;7802;51.568;6.364;2022-07-09T15:19:07;24.10;99.90
15407;DHT22;7802;51.568;6.364;2022-07-09T15:21:35;24.00;99.90
15407;DHT22;7802;51.568;6.364;2022-07-09T15:24:03;24.10;99.90
15407;DHT22;7802;51.568;6.364;2022-07-09T15:26:31;24.00;99.90
15407;DHT22;7802;51.568;6.364;2022-07-09T15:28:59;24.10;99.90
15407;DHT22;7802;51.568;6.364;2022-07-09T15:31:28;24.00;99.90
15407;DHT22;7802;51.568;6.364;2022-07-09T15:33:57;24.00;99.90
15407;DHT22;7802;51.568;6.364;2022-07-09T15:36:25;23.90;99.90
15407;DHT22;7802;51.568;6.364;2022-07-09T15:38:53;23.80;99.90
15407;DHT22;7802;51.568;6.364;2022-07-09T15:41:21;23.60;99.90
15407;DHT22;7802;51.568;6.364;2022-07-09T15:43:49;23.70;99.90
15407;DHT22;7802;51.568;6.364;2022-07-09T15:46:17;23.70;99.90
15407;DHT22;7802;51.568;6.364;2022-07-09T15:48:45;23.70;99.90
15407;DHT22;7802;51.568;6.364;2022-07-09T15:51:15;23.70;99.90
15407;DHT22;7802;51.568;6.364;2022-07-09T15:53:43;23.90;99.90
15407;DHT22;7802;51.568;6.364;2022-07-09T15:56:11;23.90;99.90